Weather History for KPVF - December, 2012

Change the Weather History Date:

Monday, December 17, 2012

  Actual Average Record
Temperature  
Mean Temperature 42 °F -  
Max Temperature 46 °F 55 °F 71 °F (2013)
Min Temperature 39 °F 33 °F 39 °F (2010)
Degree Days  
Heating Degree Days 22    
Moisture  
Dew Point 43 °F    
Average Humidity 98    
Maximum Humidity 100    
Minimum Humidity 93    
Precipitation  
Precipitation 0.65 in - - ()
Sea Level Pressure  
Sea Level Pressure 29.98 in    
Wind  
Wind Speed 14 mph (South)    
Max Wind Speed 22 mph    
Max Gust Speed 37 mph    
Visibility 4 miles    
Events      
Averages and records for this station are not official NWS values.
T = Trace of Precipitation, MM = Missing Value Source: NWS Daily Summary

Daily Weather History Graph

Daily Weather History Graph

Search for Another Location

Airport or City:

Trip Planner

Search our weather history database for the weather conditions in past years. The results will help you decide how hot, cold, wet, or windy it might be!

Date:

Astronomy

Dec. 17, 2012 Rise Set
Actual Time 7:15 AM PST 4:43 PM PST
Civil Twilight 6:45 AM PST 5:13 PM PST
Nautical Twilight 6:12 AM PST 5:46 PM PST
Astronomical Twilight 5:39 AM PST 6:19 PM PST
Moon 10:29 AM PST (12/17) 10:07 PM PST (12/17)
Length of Visible Light 10h 27m
Length of Day
9h 27m
Waxing Crescent, 26% of the Moon is Illuminated
Dec 17
Waxing Crescent
Dec 19
First Quarter
Dec 28
Full
Jan 4
Last Quarter
Jan 11
New

Hourly Weather History & Observations

Time (PST) Temp. Windchill Dew Point Humidity Pressure Visibility Wind Dir Wind Speed Gust Speed Precip Events Conditions
12:15 AM 44.6 °F 37.4 °F 42.8 °F 93% 30.01 in 3.0 mi South 16.1 mph 27.6 mph 0.01 in   Mostly Cloudy
12:35 AM 42.8 °F 34.0 °F 42.8 °F 100% 30.01 in 0.8 mi South 20.7 mph 25.3 mph 0.03 in   Overcast
1:15 AM 42.8 °F 34.3 °F 41.0 °F 93% 30.00 in 4.0 mi South 19.6 mph 25.3 mph 0.01 in   Overcast
1:35 AM 42.8 °F 35.1 °F 41.0 °F 93% 30.01 in 2.0 mi South 16.1 mph 20.7 mph 0.04 in   Overcast
1:55 AM 42.8 °F 35.4 °F 41.0 °F 93% 30.02 in 0.5 mi South 15.0 mph 19.6 mph 0.08 in   Overcast
2:15 AM 42.8 °F 35.1 °F 41.0 °F 93% 30.02 in 0.2 mi South 16.1 mph 24.2 mph 0.02 in   Overcast
2:35 AM 42.8 °F 34.8 °F 42.8 °F 100% 30.01 in 1.0 mi South 17.3 mph 25.3 mph 0.03 in   Overcast
2:55 AM 42.8 °F 34.0 °F 42.8 °F 100% 29.99 in 2.0 mi South 20.7 mph 26.5 mph 0.04 in   Overcast
3:15 AM 42.8 °F 33.8 °F 42.8 °F 100% 29.99 in 1.8 mi South 21.9 mph 29.9 mph N/A   Overcast
3:35 AM 44.6 °F 36.9 °F 44.6 °F 100% 29.99 in 1.5 mi South 18.4 mph 28.8 mph 0.01 in   Overcast
3:55 AM 44.6 °F 37.4 °F 44.6 °F 100% 29.99 in 2.5 mi South 16.1 mph 29.9 mph 0.02 in   Overcast
4:15 AM 44.6 °F 36.9 °F 44.6 °F 100% 30.00 in 0.5 mi South 18.4 mph 33.4 mph 0.01 in   Overcast
4:35 AM 44.6 °F 38.8 °F 44.6 °F 100% 30.00 in 1.2 mi South 11.5 mph 26.5 mph 0.02 in   Overcast
4:55 AM 44.6 °F 37.4 °F 44.6 °F 100% 29.99 in 0.2 mi South 16.1 mph 25.3 mph 0.03 in   Overcast
5:15 AM 44.6 °F 37.4 °F 44.6 °F 100% 29.99 in 0.5 mi South 16.1 mph 27.6 mph 0.02 in   Overcast
5:35 AM 44.6 °F 36.4 °F 44.6 °F 100% 29.98 in 0.8 mi South 20.7 mph 28.8 mph 0.04 in   Overcast
5:55 AM 44.6 °F 36.6 °F 44.6 °F 100% 29.98 in 0.5 mi South 19.6 mph 28.8 mph 0.04 in   Overcast
6:15 AM 44.6 °F 36.9 °F 44.6 °F 100% 29.98 in 0.5 mi South 18.4 mph 31.1 mph 0.01 in   Overcast
6:35 AM 44.6 °F 37.2 °F 44.6 °F 100% 29.98 in 1.5 mi South 17.3 mph 36.8 mph 0.01 in   Overcast
6:55 AM 44.6 °F 38.8 °F 44.6 °F 100% 29.99 in 0.2 mi SSW 11.5 mph 24.2 mph 0.03 in   Overcast
7:15 AM 44.6 °F 37.2 °F 44.6 °F 100% 29.99 in 0.2 mi South 17.3 mph 29.9 mph N/A   Overcast
7:35 AM 44.6 °F 36.6 °F 44.6 °F 100% 29.98 in 0.8 mi South 19.6 mph 34.5 mph 0.01 in   Overcast
7:55 AM 44.6 °F 36.9 °F 44.6 °F 100% 29.99 in 0.2 mi South 18.4 mph 27.6 mph 0.02 in   Overcast
8:15 AM 44.6 °F 37.4 °F 44.6 °F 100% 29.99 in 0.2 mi South 16.1 mph 33.4 mph N/A   Overcast
8:35 AM 44.6 °F 37.2 °F 44.6 °F 100% 30.00 in 0.2 mi South 17.3 mph 35.7 mph 0.05 in   Overcast
8:55 AM 44.6 °F 36.9 °F 44.6 °F 100% 30.01 in 0.5 mi South 18.4 mph 32.2 mph 0.06 in   Overcast
9:15 AM 44.6 °F 36.9 °F 44.6 °F 100% 30.01 in 0.2 mi South 18.4 mph 26.5 mph N/A   Overcast
9:35 AM 46.4 °F 39.8 °F 46.4 °F 100% 30.02 in 0.2 mi South 16.1 mph 25.3 mph 0.01 in   Overcast
9:55 AM 46.4 °F 39.8 °F 46.4 °F 100% 30.03 in 0.2 mi SSW 16.1 mph 26.5 mph 0.04 in   Overcast
10:15 AM 46.4 °F 40.1 °F 46.4 °F 100% 30.03 in 0.2 mi SSW 15.0 mph 20.7 mph 0.02 in   Overcast
10:35 AM 46.4 °F 39.5 °F 46.4 °F 100% 30.02 in 0.2 mi South 17.3 mph 23.0 mph 0.06 in   Overcast
10:55 AM 46.4 °F 40.1 °F 46.4 °F 100% 30.02 in 0.2 mi SSW 15.0 mph 26.5 mph 0.07 in   Overcast
11:15 AM 46.4 °F 39.5 °F 46.4 °F 100% 30.00 in 0.2 mi South 17.3 mph 25.3 mph 0.01 in   Overcast
11:35 AM 46.4 °F 40.4 °F 46.4 °F 100% 30.01 in 0.2 mi SSW 13.8 mph 19.6 mph 0.04 in   Overcast
11:55 AM 46.4 °F 41.5 °F 46.4 °F 100% 30.00 in 0.2 mi WSW 10.4 mph 23.0 mph 0.15 in   Overcast
12:15 PM 44.6 °F 38.1 °F 44.6 °F 100% 30.00 in 0.2 mi WSW 13.8 mph 24.2 mph 0.02 in   Overcast
12:35 PM 44.6 °F 39.7 °F 44.6 °F 100% 30.00 in 0.2 mi WSW 9.2 mph 18.4 mph 0.02 in   Overcast
12:55 PM 42.8 °F 39.3 °F 42.8 °F 100% 30.00 in 0.2 mi WSW 5.8 mph 17.3 mph 0.02 in   Overcast
1:15 PM 42.8 °F 38.6 °F 42.8 °F 100% 30.00 in 1.0 mi WSW 6.9 mph - N/A   Overcast
1:35 PM 44.6 °F 40.7 °F 44.6 °F 100% 30.00 in 0.2 mi SW 6.9 mph - 0.01 in   Overcast
1:55 PM 44.6 °F 40.7 °F 44.6 °F 100% 29.99 in 0.5 mi South 6.9 mph - 0.01 in   Overcast
4:35 PM 41.0 °F 38.0 °F 41.0 °F 100% 29.96 in 10.0 mi East 4.6 mph - N/A   Partly Cloudy
4:55 PM 41.0 °F 38.0 °F 41.0 °F 100% 29.96 in 10.0 mi East 4.6 mph - N/A   Mostly Cloudy
5:15 PM 41.0 °F - 41.0 °F 100% 29.96 in 10.0 mi Calm Calm - N/A   Mostly Cloudy
5:35 PM 41.0 °F 38.0 °F 39.2 °F 93% 29.96 in 10.0 mi ESE 4.6 mph - N/A   Partly Cloudy
5:55 PM 41.0 °F - 39.2 °F 93% 29.97 in 10.0 mi Calm Calm - N/A   Mostly Cloudy
6:15 PM 41.0 °F 38.0 °F 39.2 °F 93% 29.97 in 7.0 mi South 4.6 mph - N/A   Overcast
6:35 PM 41.0 °F 38.0 °F 41.0 °F 100% 29.97 in 0.5 mi SSE 4.6 mph - N/A   Overcast
6:55 PM 41.0 °F - 41.0 °F 100% 29.96 in 10.0 mi Calm Calm - N/A   Overcast
7:15 PM 41.0 °F 36.4 °F 41.0 °F 100% 29.96 in 10.0 mi SE 6.9 mph - N/A   Overcast
7:35 PM 39.2 °F 34.2 °F 39.2 °F 100% 29.95 in 10.0 mi SE 6.9 mph - N/A   Overcast
7:55 PM 41.0 °F 37.1 °F 39.2 °F 93% 29.96 in 10.0 mi SE 5.8 mph - N/A   Overcast
8:15 PM 41.0 °F 39.0 °F 39.2 °F 93% 29.96 in 10.0 mi ESE 3.5 mph - N/A   Overcast
8:35 PM 41.0 °F 37.1 °F 39.2 °F 93% 29.96 in 10.0 mi SE 5.8 mph - N/A   Overcast
8:55 PM 41.0 °F 38.0 °F 39.2 °F 93% 29.96 in 10.0 mi SE 4.6 mph - N/A   Overcast
9:15 PM 41.0 °F 39.0 °F 39.2 °F 93% 29.96 in 9.0 mi ESE 3.5 mph - N/A   Mostly Cloudy
9:35 PM 41.0 °F 39.0 °F 39.2 °F 93% 29.95 in 9.0 mi SE 3.5 mph - N/A   Mostly Cloudy
9:55 PM 41.0 °F 37.1 °F 39.2 °F 93% 29.95 in 5.0 mi NNW 5.8 mph - 0.02 in   Mostly Cloudy
10:15 PM 39.2 °F - 37.4 °F 93% 29.95 in 3.0 mi Calm Calm - 0.02 in   Mostly Cloudy
10:35 PM 41.0 °F - 39.2 °F 93% 29.95 in 10.0 mi Calm Calm - 0.02 in   Overcast
10:55 PM 41.0 °F - 39.2 °F 93% 29.95 in 3.0 mi Calm Calm - 0.02 in   Overcast
11:15 PM 41.0 °F 39.0 °F 39.2 °F 93% 29.95 in 10.0 mi ESE 3.5 mph - N/A   Overcast
11:35 PM 39.2 °F 37.0 °F 39.2 °F 100% 29.94 in 10.0 mi East 3.5 mph - N/A   Overcast
11:55 PM 39.2 °F 35.9 °F 39.2 °F 100% 29.94 in 10.0 mi East 4.6 mph - N/A   Overcast